Terminal Aerodrome Forecast
Issued by NWS Topeka, KS

Home | Current Version | Previous Version | Graphics & Text | Print | Product List | Glossary On
Versions: 1 2 3 4 5 6 7 8 9 10 11 12 13 14 15 16
582
FTUS43 KTOP 212339
TAFTOP
TAF
KTOP 212339Z 2200/2224 19011KT P6SM SKC
     FM220600 19012KT P6SM SKC WS015/22040KT
     FM221200 21010KT P6SM SKC
     FM221800 23006KT P6SM FEW080=

USA.gov is the U.S. government's official web portal to all federal, state and local government web resources and services.